sensor_id;sensor_type;location;lat;lon;timestamp;P1;durP1;ratioP1;P2;durP2;ratioP2
37297;SDS011;30517;51.932;4.278;2023-04-03T04:31:40;5.95;;;1.80;;
37297;SDS011;30517;51.932;4.278;2023-04-03T04:34:21;2.83;;;1.67;;
37297;SDS011;30517;51.932;4.278;2023-04-03T04:37:02;5.40;;;2.33;;
37297;SDS011;30517;51.932;4.278;2023-04-03T04:39:42;3.38;;;1.73;;
37297;SDS011;30517;51.932;4.278;2023-04-03T04:42:23;4.25;;;1.60;;
37297;SDS011;30517;51.932;4.278;2023-04-03T04:45:04;5.47;;;1.80;;
37297;SDS011;30517;51.932;4.278;2023-04-03T04:47:45;3.47;;;1.60;;
37297;SDS011;30517;51.932;4.278;2023-04-03T04:50:26;4.75;;;1.67;;
37297;SDS011;30517;51.932;4.278;2023-04-03T04:53:07;3.17;;;1.65;;
37297;SDS011;30517;51.932;4.278;2023-04-03T04:55:48;3.63;;;1.70;;
37297;SDS011;30517;51.932;4.278;2023-04-03T04:58:29;4.15;;;1.83;;
37297;SDS011;30517;51.932;4.278;2023-04-03T05:01:10;4.07;;;1.60;;
37297;SDS011;30517;51.932;4.278;2023-04-03T05:03:51;4.18;;;1.80;;
37297;SDS011;30517;51.932;4.278;2023-04-03T05:06:32;3.15;;;1.55;;
37297;SDS011;30517;51.932;4.278;2023-04-03T05:09:14;3.65;;;1.75;;
37297;SDS011;30517;51.932;4.278;2023-04-03T05:11:56;3.80;;;1.88;;
37297;SDS011;30517;51.932;4.278;2023-04-03T05:14:36;3.55;;;1.58;;
37297;SDS011;30517;51.932;4.278;2023-04-03T05:17:17;3.88;;;1.85;;
37297;SDS011;30517;51.932;4.278;2023-04-03T05:19:58;2.85;;;1.48;;
37297;SDS011;30517;51.932;4.278;2023-04-03T05:22:39;5.25;;;1.58;;
37297;SDS011;30517;51.932;4.278;2023-04-03T05:25:20;4.00;;;1.80;;
37297;SDS011;30517;51.932;4.278;2023-04-03T05:28:00;3.40;;;1.42;;
37297;SDS011;30517;51.932;4.278;2023-04-03T05:30:41;3.08;;;1.52;;
37297;SDS011;30517;51.932;4.278;2023-04-03T05:33:22;4.53;;;1.95;;
37297;SDS011;30517;51.932;4.278;2023-04-03T05:36:04;3.00;;;1.55;;
37297;SDS011;30517;51.932;4.278;2023-04-03T05:38:45;4.55;;;1.92;;
37297;SDS011;30517;51.932;4.278;2023-04-03T05:41:26;5.75;;;1.90;;
37297;SDS011;30517;51.932;4.278;2023-04-03T05:44:07;4.97;;;2.15;;
37297;SDS011;30517;51.932;4.278;2023-04-03T05:46:48;3.22;;;1.50;;
37297;SDS011;30517;51.932;4.278;2023-04-03T05:49:28;5.88;;;1.98;;
37297;SDS011;30517;51.932;4.278;2023-04-03T05:52:12;5.18;;;1.80;;
37297;SDS011;30517;51.932;4.278;2023-04-03T05:55:01;3.00;;;1.50;;
37297;SDS011;30517;51.932;4.278;2023-04-03T05:57:42;4.97;;;1.98;;
37297;SDS011;30517;51.932;4.278;2023-04-03T06:00:23;4.10;;;1.90;;
37297;SDS011;30517;51.932;4.278;2023-04-03T06:03:04;4.15;;;1.90;;
37297;SDS011;30517;51.932;4.278;2023-04-03T06:05:46;4.22;;;1.95;;
37297;SDS011;30517;51.932;4.278;2023-04-03T06:08:27;3.55;;;1.77;;
37297;SDS011;30517;51.932;4.278;2023-04-03T06:11:08;3.72;;;1.50;;
37297;SDS011;30517;51.932;4.278;2023-04-03T06:13:48;3.80;;;1.67;;
37297;SDS011;30517;51.932;4.278;2023-04-03T06:16:29;4.97;;;1.63;;
37297;SDS011;30517;51.932;4.278;2023-04-03T06:19:10;3.35;;;1.60;;
37297;SDS011;30517;51.932;4.278;2023-04-03T06:21:52;4.50;;;2.03;;
37297;SDS011;30517;51.932;4.278;2023-04-03T06:24:33;2.72;;;1.30;;
37297;SDS011;30517;51.932;4.278;2023-04-03T06:27:14;2.72;;;1.50;;
37297;SDS011;30517;51.932;4.278;2023-04-03T06:29:55;3.65;;;1.67;;
37297;SDS011;30517;51.932;4.278;2023-04-03T06:32:36;3.03;;;1.40;;
37297;SDS011;30517;51.932;4.278;2023-04-03T06:35:17;6.72;;;2.47;;
37297;SDS011;30517;51.932;4.278;2023-04-03T06:37:58;3.90;;;1.92;;
37297;SDS011;30517;51.932;4.278;2023-04-03T06:40:39;4.85;;;1.83;;
37297;SDS011;30517;51.932;4.278;2023-04-03T06:43:20;3.08;;;1.65;;
37297;SDS011;30517;51.932;4.278;2023-04-03T06:46:01;3.55;;;1.77;;
37297;SDS011;30517;51.932;4.278;2023-04-03T06:48:41;2.45;;;1.40;;
37297;SDS011;30517;51.932;4.278;2023-04-03T06:54:05;3.88;;;1.85;;
37297;SDS011;30517;51.932;4.278;2023-04-03T06:56:48;3.33;;;1.58;;
37297;SDS011;30517;51.932;4.278;2023-04-03T06:59:29;3.75;;;1.40;;
37297;SDS011;30517;51.932;4.278;2023-04-03T07:02:11;4.18;;;1.88;;
37297;SDS011;30517;51.932;4.278;2023-04-03T07:04:52;4.57;;;1.83;;
37297;SDS011;30517;51.932;4.278;2023-04-03T07:07:33;4.10;;;1.55;;
37297;SDS011;30517;51.932;4.278;2023-04-03T07:10:14;3.53;;;1.70;;
37297;SDS011;30517;51.932;4.278;2023-04-03T07:12:55;4.05;;;1.63;;
37297;SDS011;30517;51.932;4.278;2023-04-03T07:15:36;4.32;;;2.10;;
37297;SDS011;30517;51.932;4.278;2023-04-03T07:18:17;3.30;;;1.50;;
37297;SDS011;30517;51.932;4.278;2023-04-03T07:20:58;3.78;;;1.55;;
37297;SDS011;30517;51.932;4.278;2023-04-03T07:23:39;6.60;;;1.63;;
37297;SDS011;30517;51.932;4.278;2023-04-03T07:26:20;6.97;;;1.98;;
37297;SDS011;30517;51.932;4.278;2023-04-03T07:29:02;4.07;;;1.80;;
37297;SDS011;30517;51.932;4.278;2023-04-03T07:31:43;5.40;;;2.13;;
37297;SDS011;30517;51.932;4.278;2023-04-03T07:34:25;7.25;;;2.10;;
37297;SDS011;30517;51.932;4.278;2023-04-03T07:37:06;3.80;;;1.38;;
37297;SDS011;30517;51.932;4.278;2023-04-03T07:39:47;4.30;;;1.77;;
37297;SDS011;30517;51.932;4.278;2023-04-03T07:42:28;5.20;;;1.90;;
37297;SDS011;30517;51.932;4.278;2023-04-03T07:45:09;4.00;;;1.80;;
37297;SDS011;30517;51.932;4.278;2023-04-03T07:47:50;4.22;;;1.67;;
37297;SDS011;30517;51.932;4.278;2023-04-03T07:50:31;4.72;;;1.73;;
37297;SDS011;30517;51.932;4.278;2023-04-03T07:53:12;4.22;;;2.13;;
37297;SDS011;30517;51.932;4.278;2023-04-03T07:55:53;3.30;;;1.70;;
37297;SDS011;30517;51.932;4.278;2023-04-03T07:58:36;3.53;;;2.03;;
37297;SDS011;30517;51.932;4.278;2023-04-03T08:01:18;7.07;;;2.15;;
37297;SDS011;30517;51.932;4.278;2023-04-03T08:03:59;3.17;;;1.60;;
37297;SDS011;30517;51.932;4.278;2023-04-03T08:06:40;2.97;;;1.60;;
37297;SDS011;30517;51.932;4.278;2023-04-03T08:09:21;4.65;;;2.17;;
37297;SDS011;30517;51.932;4.278;2023-04-03T08:12:02;4.47;;;1.90;;
37297;SDS011;30517;51.932;4.278;2023-04-03T08:14:43;4.68;;;1.80;;
37297;SDS011;30517;51.932;4.278;2023-04-03T08:17:23;4.72;;;1.67;;
37297;SDS011;30517;51.932;4.278;2023-04-03T08:20:05;3.72;;;1.45;;
37297;SDS011;30517;51.932;4.278;2023-04-03T08:22:47;2.97;;;1.40;;
37297;SDS011;30517;51.932;4.278;2023-04-03T08:25:28;4.05;;;1.90;;
37297;SDS011;30517;51.932;4.278;2023-04-03T08:28:10;4.20;;;1.98;;
37297;SDS011;30517;51.932;4.278;2023-04-03T08:30:51;6.38;;;1.95;;
37297;SDS011;30517;51.932;4.278;2023-04-03T08:33:33;5.47;;;1.83;;
37297;SDS011;30517;51.932;4.278;2023-04-03T08:36:20;2.88;;;1.42;;
37297;SDS011;30517;51.932;4.278;2023-04-03T08:39:06;4.00;;;2.00;;
37297;SDS011;30517;51.932;4.278;2023-04-03T08:41:47;3.38;;;1.65;;
37297;SDS011;30517;51.932;4.278;2023-04-03T08:50:01;5.45;;;1.88;;
37297;SDS011;30517;51.932;4.278;2023-04-03T08:52:48;5.13;;;2.00;;
37297;SDS011;30517;51.932;4.278;2023-04-03T08:55:33;3.22;;;1.40;;
37297;SDS011;30517;51.932;4.278;2023-04-03T08:58:27;4.00;;;1.60;;
37297;SDS011;30517;51.932;4.278;2023-04-03T09:01:19;4.55;;;1.80;;
37297;SDS011;30517;51.932;4.278;2023-04-03T09:04:08;4.30;;;1.65;;
37297;SDS011;30517;51.932;4.278;2023-04-03T09:06:57;4.13;;;1.67;;
37297;SDS011;30517;51.932;4.278;2023-04-03T09:09:44;6.07;;;1.70;;
37297;SDS011;30517;51.932;4.278;2023-04-03T09:12:37;4.15;;;1.83;;
37297;SDS011;30517;51.932;4.278;2023-04-03T09:18:13;3.47;;;1.50;;
37297;SDS011;30517;51.932;4.278;2023-04-03T09:21:17;2.85;;;1.20;;
37297;SDS011;30517;51.932;4.278;2023-04-03T09:24:05;7.18;;;1.58;;
37297;SDS011;30517;51.932;4.278;2023-04-03T09:26:48;6.25;;;1.85;;
37297;SDS011;30517;51.932;4.278;2023-04-03T09:29:39;5.68;;;1.70;;
37297;SDS011;30517;51.932;4.278;2023-04-03T09:35:15;7.38;;;1.80;;
37297;SDS011;30517;51.932;4.278;2023-04-03T09:38:14;3.70;;;1.65;;
37297;SDS011;30517;51.932;4.278;2023-04-03T09:43:51;3.33;;;1.40;;
37297;SDS011;30517;51.932;4.278;2023-04-03T09:46:34;6.38;;;1.58;;
37297;SDS011;30517;51.932;4.278;2023-04-03T09:49:17;3.03;;;1.50;;
37297;SDS011;30517;51.932;4.278;2023-04-03T09:52:00;2.95;;;1.58;;
37297;SDS011;30517;51.932;4.278;2023-04-03T09:55:33;6.90;;;1.90;;
37297;SDS011;30517;51.932;4.278;2023-04-03T09:58:22;9.10;;;1.55;;
37297;SDS011;30517;51.932;4.278;2023-04-03T10:01:09;3.50;;;1.30;;
37297;SDS011;30517;51.932;4.278;2023-04-03T10:04:07;2.92;;;1.10;;
37297;SDS011;30517;51.932;4.278;2023-04-03T10:06:53;2.40;;;1.30;;
37297;SDS011;30517;51.932;4.278;2023-04-03T10:09:35;4.70;;;1.73;;
37297;SDS011;30517;51.932;4.278;2023-04-03T10:12:19;2.92;;;1.42;;
37297;SDS011;30517;51.932;4.278;2023-04-03T10:15:00;3.53;;;1.70;;
37297;SDS011;30517;51.932;4.278;2023-04-03T10:23:36;2.80;;;1.30;;
37297;SDS011;30517;51.932;4.278;2023-04-03T10:26:29;2.40;;;1.30;;
37297;SDS011;30517;51.932;4.278;2023-04-03T10:29:29;4.43;;;1.33;;
37297;SDS011;30517;51.932;4.278;2023-04-03T10:47:07;2.78;;;1.30;;
37297;SDS011;30517;51.932;4.278;2023-04-03T10:53:08;2.85;;;1.20;;
37297;SDS011;30517;51.932;4.278;2023-04-03T10:56:03;1.83;;;1.05;;
37297;SDS011;30517;51.932;4.278;2023-04-03T10:58:57;2.97;;;1.23;;
37297;SDS011;30517;51.932;4.278;2023-04-03T11:01:45;1.92;;;1.00;;
37297;SDS011;30517;51.932;4.278;2023-04-03T11:04:40;3.00;;;0.95;;
37297;SDS011;30517;51.932;4.278;2023-04-03T11:07:24;4.38;;;1.45;;
37297;SDS011;30517;51.932;4.278;2023-04-03T11:16:15;2.35;;;1.08;;
37297;SDS011;30517;51.932;4.278;2023-04-03T11:19:02;2.42;;;1.08;;
37297;SDS011;30517;51.932;4.278;2023-04-03T11:24:37;2.17;;;0.93;;
37297;SDS011;30517;51.932;4.278;2023-04-03T11:27:22;1.92;;;0.88;;
37297;SDS011;30517;51.932;4.278;2023-04-03T11:30:05;1.77;;;1.10;;
37297;SDS011;30517;51.932;4.278;2023-04-03T11:33:24;2.35;;;1.10;;
37297;SDS011;30517;51.932;4.278;2023-04-03T11:35:59;1.15;;;0.90;;
37297;SDS011;30517;51.932;4.278;2023-04-03T11:38:47;4.90;;;1.40;;
37297;SDS011;30517;51.932;4.278;2023-04-03T11:41:32;1.75;;;1.10;;
37297;SDS011;30517;51.932;4.278;2023-04-03T11:47:43;1.75;;;0.95;;
37297;SDS011;30517;51.932;4.278;2023-04-03T11:55:56;2.63;;;1.10;;
37297;SDS011;30517;51.932;4.278;2023-04-03T11:58:42;3.33;;;0.85;;
37297;SDS011;30517;51.932;4.278;2023-04-03T12:01:54;2.45;;;0.88;;
37297;SDS011;30517;51.932;4.278;2023-04-03T12:04:36;3.65;;;0.80;;
37297;SDS011;30517;51.932;4.278;2023-04-03T12:07:18;0.80;;;0.65;;
37297;SDS011;30517;51.932;4.278;2023-04-03T12:09:59;1.25;;;0.65;;
37297;SDS011;30517;51.932;4.278;2023-04-03T12:12:40;2.08;;;0.95;;
37297;SDS011;30517;51.932;4.278;2023-04-03T12:15:23;2.60;;;0.90;;
37297;SDS011;30517;51.932;4.278;2023-04-03T12:22:05;1.73;;;0.80;;
37297;SDS011;30517;51.932;4.278;2023-04-03T12:24:29;1.17;;;0.80;;
37297;SDS011;30517;51.932;4.278;2023-04-03T12:27:20;1.52;;;0.68;;
37297;SDS011;30517;51.932;4.278;2023-04-03T12:35:39;1.27;;;0.73;;
37297;SDS011;30517;51.932;4.278;2023-04-03T12:41:30;2.08;;;0.95;;
37297;SDS011;30517;51.932;4.278;2023-04-03T12:44:22;1.30;;;0.63;;
37297;SDS011;30517;51.932;4.278;2023-04-03T12:47:25;1.60;;;0.55;;
37297;SDS011;30517;51.932;4.278;2023-04-03T12:50:20;1.52;;;0.77;;
37297;SDS011;30517;51.932;4.278;2023-04-03T12:53:04;1.13;;;0.70;;
37297;SDS011;30517;51.932;4.278;2023-04-03T12:59:26;1.35;;;0.60;;
37297;SDS011;30517;51.932;4.278;2023-04-03T13:02:13;1.35;;;0.65;;
37297;SDS011;30517;51.932;4.278;2023-04-03T13:04:59;1.73;;;0.80;;
37297;SDS011;30517;51.932;4.278;2023-04-03T13:07:49;2.40;;;0.93;;
37297;SDS011;30517;51.932;4.278;2023-04-03T13:10:49;1.85;;;0.82;;
37297;SDS011;30517;51.932;4.278;2023-04-03T13:13:34;1.05;;;0.60;;
37297;SDS011;30517;51.932;4.278;2023-04-03T13:16:16;2.08;;;1.00;;
37297;SDS011;30517;51.932;4.278;2023-04-03T13:18:57;2.53;;;0.93;;
37297;SDS011;30517;51.932;4.278;2023-04-03T13:21:38;1.83;;;1.00;;
37297;SDS011;30517;51.932;4.278;2023-04-03T13:24:19;1.52;;;0.82;;
37297;SDS011;30517;51.932;4.278;2023-04-03T13:27:00;1.98;;;0.70;;
37297;SDS011;30517;51.932;4.278;2023-04-03T13:29:41;1.05;;;0.70;;
37297;SDS011;30517;51.932;4.278;2023-04-03T13:32:23;2.63;;;0.85;;
37297;SDS011;30517;51.932;4.278;2023-04-03T13:41:02;2.00;;;0.90;;
37297;SDS011;30517;51.932;4.278;2023-04-03T13:47:22;2.22;;;0.75;;
37297;SDS011;30517;51.932;4.278;2023-04-03T13:50:12;1.20;;;0.70;;
37297;SDS011;30517;51.932;4.278;2023-04-03T13:53:08;2.50;;;1.00;;
37297;SDS011;30517;51.932;4.278;2023-04-03T13:58:54;4.07;;;1.00;;
37297;SDS011;30517;51.932;4.278;2023-04-03T14:04:32;0.88;;;0.60;;
37297;SDS011;30517;51.932;4.278;2023-04-03T14:07:25;1.13;;;0.60;;
37297;SDS011;30517;51.932;4.278;2023-04-03T14:10:07;1.60;;;0.70;;
37297;SDS011;30517;51.932;4.278;2023-04-03T14:12:48;3.20;;;0.90;;
37297;SDS011;30517;51.932;4.278;2023-04-03T14:15:31;2.05;;;0.90;;
37297;SDS011;30517;51.932;4.278;2023-04-03T14:18:13;2.10;;;0.93;;
37297;SDS011;30517;51.932;4.278;2023-04-03T14:20:55;3.97;;;0.90;;
37297;SDS011;30517;51.932;4.278;2023-04-03T14:23:36;2.03;;;1.10;;
37297;SDS011;30517;51.932;4.278;2023-04-03T14:26:18;2.30;;;0.98;;
37297;SDS011;30517;51.932;4.278;2023-04-03T14:29:02;1.92;;;0.80;;
37297;SDS011;30517;51.932;4.278;2023-04-03T14:31:43;2.47;;;1.05;;
37297;SDS011;30517;51.932;4.278;2023-04-03T14:34:25;2.42;;;0.90;;
37297;SDS011;30517;51.932;4.278;2023-04-03T14:37:11;2.22;;;0.98;;
37297;SDS011;30517;51.932;4.278;2023-04-03T14:39:55;3.42;;;1.17;;
37297;SDS011;30517;51.932;4.278;2023-04-03T14:42:37;2.30;;;1.10;;
37297;SDS011;30517;51.932;4.278;2023-04-03T14:45:18;2.40;;;0.90;;
37297;SDS011;30517;51.932;4.278;2023-04-03T14:47:59;1.50;;;0.73;;
37297;SDS011;30517;51.932;4.278;2023-04-03T14:50:40;1.17;;;0.65;;
37297;SDS011;30517;51.932;4.278;2023-04-03T14:53:21;3.13;;;0.90;;
37297;SDS011;30517;51.932;4.278;2023-04-03T14:58:52;2.40;;;0.90;;
37297;SDS011;30517;51.932;4.278;2023-04-03T15:01:39;2.53;;;0.80;;
37297;SDS011;30517;51.932;4.278;2023-04-03T15:04:20;1.55;;;0.90;;
37297;SDS011;30517;51.932;4.278;2023-04-03T15:07:01;2.25;;;0.85;;
37297;SDS011;30517;51.932;4.278;2023-04-03T15:09:42;2.17;;;1.10;;
37297;SDS011;30517;51.932;4.278;2023-04-03T15:12:23;2.13;;;1.00;;
37297;SDS011;30517;51.932;4.278;2023-04-03T15:15:05;1.38;;;0.80;;
37297;SDS011;30517;51.932;4.278;2023-04-03T15:17:47;4.07;;;1.13;;
37297;SDS011;30517;51.932;4.278;2023-04-03T15:20:30;1.70;;;0.85;;
37297;SDS011;30517;51.932;4.278;2023-04-03T15:23:13;3.83;;;1.10;;
37297;SDS011;30517;51.932;4.278;2023-04-03T15:25:55;1.58;;;0.80;;
37297;SDS011;30517;51.932;4.278;2023-04-03T15:28:39;1.95;;;1.05;;
37297;SDS011;30517;51.932;4.278;2023-04-03T15:31:22;2.03;;;0.90;;
37297;SDS011;30517;51.932;4.278;2023-04-03T15:34:03;2.42;;;0.95;;
37297;SDS011;30517;51.932;4.278;2023-04-03T15:36:43;1.40;;;0.80;;
37297;SDS011;30517;51.932;4.278;2023-04-03T15:39:25;1.65;;;0.82;;
37297;SDS011;30517;51.932;4.278;2023-04-03T15:42:06;1.83;;;1.00;;
37297;SDS011;30517;51.932;4.278;2023-04-03T15:44:47;1.95;;;0.88;;
37297;SDS011;30517;51.932;4.278;2023-04-03T15:47:27;1.75;;;0.95;;
37297;SDS011;30517;51.932;4.278;2023-04-03T15:50:08;2.05;;;1.00;;
37297;SDS011;30517;51.932;4.278;2023-04-03T15:52:50;1.83;;;1.02;;
37297;SDS011;30517;51.932;4.278;2023-04-03T15:55:34;2.88;;;1.15;;
37297;SDS011;30517;51.932;4.278;2023-04-03T15:58:17;2.70;;;1.10;;
37297;SDS011;30517;51.932;4.278;2023-04-03T16:00:58;3.10;;;1.20;;
37297;SDS011;30517;51.932;4.278;2023-04-03T16:03:39;2.22;;;1.08;;
37297;SDS011;30517;51.932;4.278;2023-04-03T16:06:25;2.15;;;1.13;;
37297;SDS011;30517;51.932;4.278;2023-04-03T16:09:09;1.65;;;0.80;;
37297;SDS011;30517;51.932;4.278;2023-04-03T16:11:50;4.00;;;1.30;;
37297;SDS011;30517;51.932;4.278;2023-04-03T16:14:31;3.15;;;1.20;;
37297;SDS011;30517;51.932;4.278;2023-04-03T16:17:12;2.60;;;1.00;;
37297;SDS011;30517;51.932;4.278;2023-04-03T16:19:53;2.00;;;0.80;;
37297;SDS011;30517;51.932;4.278;2023-04-03T16:22:35;1.90;;;0.80;;
37297;SDS011;30517;51.932;4.278;2023-04-03T16:25:17;2.85;;;1.05;;
37297;SDS011;30517;51.932;4.278;2023-04-03T16:27:58;2.47;;;1.10;;
37297;SDS011;30517;51.932;4.278;2023-04-03T16:30:43;2.83;;;1.30;;
37297;SDS011;30517;51.932;4.278;2023-04-03T16:33:26;2.00;;;1.10;;
37297;SDS011;30517;51.932;4.278;2023-04-03T16:36:07;2.28;;;1.10;;
37297;SDS011;30517;51.932;4.278;2023-04-03T16:38:48;2.42;;;1.20;;
37297;SDS011;30517;51.932;4.278;2023-04-03T16:41:29;2.38;;;0.90;;
37297;SDS011;30517;51.932;4.278;2023-04-03T16:44:10;2.38;;;1.05;;
37297;SDS011;30517;51.932;4.278;2023-04-03T16:46:51;1.23;;;0.77;;
37297;SDS011;30517;51.932;4.278;2023-04-03T16:49:32;2.33;;;1.05;;
37297;SDS011;30517;51.932;4.278;2023-04-03T16:52:13;2.35;;;1.33;;
37297;SDS011;30517;51.932;4.278;2023-04-03T16:54:54;2.88;;;1.17;;
37297;SDS011;30517;51.932;4.278;2023-04-03T16:57:35;2.17;;;1.13;;
37297;SDS011;30517;51.932;4.278;2023-04-03T17:00:16;2.13;;;0.95;;
37297;SDS011;30517;51.932;4.278;2023-04-03T17:02:57;1.92;;;1.00;;
37297;SDS011;30517;51.932;4.278;2023-04-03T17:05:38;2.85;;;1.10;;
37297;SDS011;30517;51.932;4.278;2023-04-03T17:08:19;1.85;;;0.95;;
37297;SDS011;30517;51.932;4.278;2023-04-03T17:10:59;2.38;;;1.02;;
37297;SDS011;30517;51.932;4.278;2023-04-03T17:13:40;1.88;;;1.00;;
37297;SDS011;30517;51.932;4.278;2023-04-03T17:16:21;2.22;;;0.80;;
37297;SDS011;30517;51.932;4.278;2023-04-03T17:19:06;3.25;;;1.00;;
37297;SDS011;30517;51.932;4.278;2023-04-03T17:21:47;1.83;;;0.80;;
37297;SDS011;30517;51.932;4.278;2023-04-03T17:24:28;2.25;;;1.02;;
37297;SDS011;30517;51.932;4.278;2023-04-03T17:27:09;2.05;;;1.00;;
37297;SDS011;30517;51.932;4.278;2023-04-03T17:29:50;2.58;;;1.10;;
37297;SDS011;30517;51.932;4.278;2023-04-03T17:32:31;2.35;;;1.17;;
37297;SDS011;30517;51.932;4.278;2023-04-03T17:35:11;2.53;;;1.10;;
37297;SDS011;30517;51.932;4.278;2023-04-03T17:37:52;3.28;;;1.15;;
37297;SDS011;30517;51.932;4.278;2023-04-03T17:40:33;1.80;;;0.90;;
37297;SDS011;30517;51.932;4.278;2023-04-03T17:43:14;2.22;;;1.10;;
37297;SDS011;30517;51.932;4.278;2023-04-03T17:45:59;2.55;;;1.00;;
37297;SDS011;30517;51.932;4.278;2023-04-03T17:48:44;3.03;;;1.30;;
37297;SDS011;30517;51.932;4.278;2023-04-03T17:51:25;4.15;;;1.30;;
37297;SDS011;30517;51.932;4.278;2023-04-03T17:54:07;2.47;;;1.25;;
37297;SDS011;30517;51.932;4.278;2023-04-03T17:56:48;2.35;;;1.13;;
37297;SDS011;30517;51.932;4.278;2023-04-03T17:59:28;4.07;;;1.30;;
37297;SDS011;30517;51.932;4.278;2023-04-03T18:02:10;2.80;;;1.20;;
37297;SDS011;30517;51.932;4.278;2023-04-03T18:04:51;2.47;;;1.10;;
37297;SDS011;30517;51.932;4.278;2023-04-03T18:07:32;2.55;;;0.95;;
37297;SDS011;30517;51.932;4.278;2023-04-03T18:10:13;2.95;;;0.98;;
37297;SDS011;30517;51.932;4.278;2023-04-03T18:12:55;3.03;;;1.30;;
37297;SDS011;30517;51.932;4.278;2023-04-03T18:15:37;2.10;;;1.17;;
37297;SDS011;30517;51.932;4.278;2023-04-03T18:18:24;2.22;;;1.10;;
37297;SDS011;30517;51.932;4.278;2023-04-03T18:21:05;3.00;;;1.00;;
37297;SDS011;30517;51.932;4.278;2023-04-03T18:26:31;2.78;;;1.10;;
37297;SDS011;30517;51.932;4.278;2023-04-03T18:31:56;2.67;;;1.00;;
37297;SDS011;30517;51.932;4.278;2023-04-03T18:34:38;1.95;;;1.10;;
37297;SDS011;30517;51.932;4.278;2023-04-03T18:37:19;3.80;;;1.33;;
37297;SDS011;30517;51.932;4.278;2023-04-03T18:40:02;1.70;;;0.88;;
37297;SDS011;30517;51.932;4.278;2023-04-03T18:42:43;3.03;;;1.10;;
37297;SDS011;30517;51.932;4.278;2023-04-03T18:45:24;2.22;;;1.00;;
37297;SDS011;30517;51.932;4.278;2023-04-03T18:48:05;4.53;;;1.42;;
37297;SDS011;30517;51.932;4.278;2023-04-03T18:50:46;2.28;;;1.05;;
37297;SDS011;30517;51.932;4.278;2023-04-03T18:53:28;1.98;;;0.98;;
37297;SDS011;30517;51.932;4.278;2023-04-03T18:56:08;2.53;;;1.15;;
37297;SDS011;30517;51.932;4.278;2023-04-03T18:58:49;3.33;;;1.15;;
37297;SDS011;30517;51.932;4.278;2023-04-03T19:01:30;2.78;;;1.35;;
37297;SDS011;30517;51.932;4.278;2023-04-03T19:04:11;2.80;;;1.20;;
37297;SDS011;30517;51.932;4.278;2023-04-03T19:06:53;3.13;;;1.52;;
37297;SDS011;30517;51.932;4.278;2023-04-03T19:09:34;2.50;;;1.23;;
37297;SDS011;30517;51.932;4.278;2023-04-03T19:12:17;2.53;;;1.40;;
37297;SDS011;30517;51.932;4.278;2023-04-03T19:14:58;2.25;;;1.08;;
37297;SDS011;30517;51.932;4.278;2023-04-03T19:17:39;3.50;;;1.33;;
37297;SDS011;30517;51.932;4.278;2023-04-03T19:20:20;2.20;;;1.08;;
37297;SDS011;30517;51.932;4.278;2023-04-03T19:23:01;2.33;;;1.17;;
37297;SDS011;30517;51.932;4.278;2023-04-03T19:25:44;2.50;;;1.25;;
37297;SDS011;30517;51.932;4.278;2023-04-03T19:28:25;3.63;;;1.58;;
37297;SDS011;30517;51.932;4.278;2023-04-03T19:31:10;3.83;;;1.48;;
37297;SDS011;30517;51.932;4.278;2023-04-03T19:33:52;3.13;;;1.40;;
37297;SDS011;30517;51.932;4.278;2023-04-03T19:36:33;2.35;;;1.30;;
37297;SDS011;30517;51.932;4.278;2023-04-03T19:39:15;3.00;;;1.20;;
37297;SDS011;30517;51.932;4.278;2023-04-03T19:41:56;2.67;;;1.17;;
37297;SDS011;30517;51.932;4.278;2023-04-03T19:44:37;2.47;;;1.30;;
37297;SDS011;30517;51.932;4.278;2023-04-03T19:47:18;2.75;;;1.17;;
37297;SDS011;30517;51.932;4.278;2023-04-03T19:50:01;2.45;;;1.20;;
37297;SDS011;30517;51.932;4.278;2023-04-03T19:52:43;2.67;;;1.40;;
37297;SDS011;30517;51.932;4.278;2023-04-03T19:55:25;4.18;;;1.30;;
37297;SDS011;30517;51.932;4.278;2023-04-03T19:58:10;3.47;;;1.30;;
37297;SDS011;30517;51.932;4.278;2023-04-03T20:00:50;3.10;;;1.10;;
37297;SDS011;30517;51.932;4.278;2023-04-03T20:03:31;2.08;;;1.08;;
37297;SDS011;30517;51.932;4.278;2023-04-03T20:06:13;3.05;;;1.20;;
37297;SDS011;30517;51.932;4.278;2023-04-03T20:08:54;2.83;;;1.30;;
37297;SDS011;30517;51.932;4.278;2023-04-03T20:11:36;4.05;;;1.30;;
37297;SDS011;30517;51.932;4.278;2023-04-03T20:14:19;3.40;;;1.23;;
37297;SDS011;30517;51.932;4.278;2023-04-03T20:17:00;3.22;;;1.30;;
37297;SDS011;30517;51.932;4.278;2023-04-03T20:19:41;4.13;;;1.50;;
37297;SDS011;30517;51.932;4.278;2023-04-03T20:22:21;1.55;;;0.90;;
37297;SDS011;30517;51.932;4.278;2023-04-03T20:25:03;4.68;;;1.65;;
37297;SDS011;30517;51.932;4.278;2023-04-03T20:27:46;3.95;;;1.25;;
37297;SDS011;30517;51.932;4.278;2023-04-03T20:30:27;2.60;;;1.10;;
37297;SDS011;30517;51.932;4.278;2023-04-03T20:33:08;3.90;;;1.20;;
37297;SDS011;30517;51.932;4.278;2023-04-03T20:35:49;2.35;;;1.10;;
37297;SDS011;30517;51.932;4.278;2023-04-03T20:38:30;2.53;;;1.33;;
37297;SDS011;30517;51.932;4.278;2023-04-03T20:41:11;3.25;;;1.25;;
37297;SDS011;30517;51.932;4.278;2023-04-03T20:43:52;3.50;;;1.30;;
37297;SDS011;30517;51.932;4.278;2023-04-03T20:46:33;2.75;;;1.30;;
37297;SDS011;30517;51.932;4.278;2023-04-03T20:49:14;6.30;;;1.30;;
37297;SDS011;30517;51.932;4.278;2023-04-03T20:51:55;3.50;;;1.65;;
37297;SDS011;30517;51.932;4.278;2023-04-03T20:54:35;2.80;;;1.30;;
37297;SDS011;30517;51.932;4.278;2023-04-03T20:57:17;4.47;;;1.33;;
37297;SDS011;30517;51.932;4.278;2023-04-03T20:59:58;2.72;;;1.38;;
37297;SDS011;30517;51.932;4.278;2023-04-03T21:02:40;4.55;;;1.55;;
37297;SDS011;30517;51.932;4.278;2023-04-03T21:05:21;2.47;;;1.20;;
37297;SDS011;30517;51.932;4.278;2023-04-03T21:20:47;2.92;;;1.25;;
37297;SDS011;30517;51.932;4.278;2023-04-03T21:23:29;2.97;;;1.25;;
37297;SDS011;30517;51.932;4.278;2023-04-03T21:26:11;4.57;;;1.58;;
37297;SDS011;30517;51.932;4.278;2023-04-03T21:28:52;3.15;;;1.30;;
37297;SDS011;30517;51.932;4.278;2023-04-03T21:31:53;3.45;;;1.30;;
37297;SDS011;30517;51.932;4.278;2023-04-03T21:37:18;2.58;;;1.15;;
37297;SDS011;30517;51.932;4.278;2023-04-03T21:39:59;3.20;;;1.25;;
37297;SDS011;30517;51.932;4.278;2023-04-03T21:42:40;3.70;;;1.20;;
37297;SDS011;30517;51.932;4.278;2023-04-03T21:45:20;2.65;;;1.02;;
37297;SDS011;30517;51.932;4.278;2023-04-03T21:48:01;2.08;;;1.13;;
37297;SDS011;30517;51.932;4.278;2023-04-03T21:50:42;3.10;;;1.40;;
37297;SDS011;30517;51.932;4.278;2023-04-03T21:53:23;3.17;;;1.20;;
37297;SDS011;30517;51.932;4.278;2023-04-03T21:56:06;2.07;;;1.03;;
37297;SDS011;30517;51.932;4.278;2023-04-03T21:58:47;2.15;;;1.00;;
37297;SDS011;30517;51.932;4.278;2023-04-03T22:01:28;2.72;;;1.33;;
37297;SDS011;30517;51.932;4.278;2023-04-03T22:04:09;2.85;;;1.27;;
37297;SDS011;30517;51.932;4.278;2023-04-03T22:06:50;4.78;;;1.42;;
37297;SDS011;30517;51.932;4.278;2023-04-03T22:09:32;2.70;;;1.20;;
37297;SDS011;30517;51.932;4.278;2023-04-03T22:12:13;2.35;;;1.40;;
37297;SDS011;30517;51.932;4.278;2023-04-03T22:14:54;2.45;;;1.25;;
37297;SDS011;30517;51.932;4.278;2023-04-03T22:17:35;3.28;;;1.58;;
37297;SDS011;30517;51.932;4.278;2023-04-03T22:20:17;2.83;;;1.38;;
37297;SDS011;30517;51.932;4.278;2023-04-03T22:22:57;3.00;;;1.10;;
37297;SDS011;30517;51.932;4.278;2023-04-03T22:25:38;1.95;;;1.00;;
37297;SDS011;30517;51.932;4.278;2023-04-03T22:28:19;3.22;;;1.02;;
37297;SDS011;30517;51.932;4.278;2023-04-03T22:31:01;2.35;;;1.20;;
37297;SDS011;30517;51.932;4.278;2023-04-03T22:33:43;4.10;;;1.35;;
37297;SDS011;30517;51.932;4.278;2023-04-03T22:36:25;2.22;;;1.00;;
37297;SDS011;30517;51.932;4.278;2023-04-03T22:39:06;3.50;;;1.48;;
37297;SDS011;30517;51.932;4.278;2023-04-03T22:41:49;3.13;;;1.20;;
37297;SDS011;30517;51.932;4.278;2023-04-03T22:44:31;3.00;;;1.30;;
37297;SDS011;30517;51.932;4.278;2023-04-03T22:47:12;3.08;;;1.40;;